sensor_id;sensor_type;location;lat;lon;timestamp;P1;durP1;ratioP1;P2;durP2;ratioP2
43457;SDS011;29046;54.184;18.680;2022-11-11T00:00:11;16.88;;;6.25;;
43457;SDS011;29046;54.184;18.680;2022-11-11T00:03:17;14.50;;;5.85;;
43457;SDS011;29046;54.184;18.680;2022-11-11T00:05:51;11.98;;;5.38;;
43457;SDS011;29046;54.184;18.680;2022-11-11T00:08:46;13.15;;;6.05;;
43457;SDS011;29046;54.184;18.680;2022-11-11T00:11:35;11.13;;;5.95;;
43457;SDS011;29046;54.184;18.680;2022-11-11T00:14:17;15.77;;;5.78;;
43457;SDS011;29046;54.184;18.680;2022-11-11T00:16:51;13.13;;;6.18;;
43457;SDS011;29046;54.184;18.680;2022-11-11T00:19:58;19.20;;;5.55;;
43457;SDS011;29046;54.184;18.680;2022-11-11T00:22:52;14.82;;;5.68;;
43457;SDS011;29046;54.184;18.680;2022-11-11T00:25:58;11.50;;;4.35;;
43457;SDS011;29046;54.184;18.680;2022-11-11T00:28:52;20.33;;;5.70;;
43457;SDS011;29046;54.184;18.680;2022-11-11T00:31:40;12.45;;;5.80;;
43457;SDS011;29046;54.184;18.680;2022-11-11T00:34:34;10.82;;;5.20;;
43457;SDS011;29046;54.184;18.680;2022-11-11T00:37:42;9.65;;;5.00;;
43457;SDS011;29046;54.184;18.680;2022-11-11T00:40:24;9.02;;;5.00;;
43457;SDS011;29046;54.184;18.680;2022-11-11T00:43:04;11.35;;;4.75;;
43457;SDS011;29046;54.184;18.680;2022-11-11T00:45:45;12.20;;;5.13;;
43457;SDS011;29046;54.184;18.680;2022-11-11T00:48:25;16.88;;;6.40;;
43457;SDS011;29046;54.184;18.680;2022-11-11T00:51:25;7.88;;;3.97;;
43457;SDS011;29046;54.184;18.680;2022-11-11T00:54:06;16.40;;;6.05;;
43457;SDS011;29046;54.184;18.680;2022-11-11T00:56:47;17.05;;;5.28;;
43457;SDS011;29046;54.184;18.680;2022-11-11T00:59:28;10.18;;;4.22;;
43457;SDS011;29046;54.184;18.680;2022-11-11T01:02:08;10.73;;;5.38;;
43457;SDS011;29046;54.184;18.680;2022-11-11T01:04:49;13.70;;;4.85;;
43457;SDS011;29046;54.184;18.680;2022-11-11T01:07:29;13.80;;;6.07;;
43457;SDS011;29046;54.184;18.680;2022-11-11T01:10:17;11.75;;;5.80;;
43457;SDS011;29046;54.184;18.680;2022-11-11T01:13:18;8.57;;;4.53;;
43457;SDS011;29046;54.184;18.680;2022-11-11T01:16:14;11.27;;;4.10;;
43457;SDS011;29046;54.184;18.680;2022-11-11T01:19:09;14.50;;;5.97;;
43457;SDS011;29046;54.184;18.680;2022-11-11T01:21:42;15.15;;;4.97;;
43457;SDS011;29046;54.184;18.680;2022-11-11T01:24:23;13.43;;;4.90;;
43457;SDS011;29046;54.184;18.680;2022-11-11T01:27:04;14.98;;;5.50;;
43457;SDS011;29046;54.184;18.680;2022-11-11T01:29:38;13.38;;;5.13;;
43457;SDS011;29046;54.184;18.680;2022-11-11T01:32:26;15.88;;;5.38;;
43457;SDS011;29046;54.184;18.680;2022-11-11T01:34:59;10.98;;;6.60;;
43457;SDS011;29046;54.184;18.680;2022-11-11T01:37:54;17.73;;;6.20;;
43457;SDS011;29046;54.184;18.680;2022-11-11T01:40:50;9.60;;;5.57;;
43457;SDS011;29046;54.184;18.680;2022-11-11T01:43:23;14.73;;;7.03;;
43457;SDS011;29046;54.184;18.680;2022-11-11T01:46:15;13.73;;;6.38;;
43457;SDS011;29046;54.184;18.680;2022-11-11T01:48:52;15.82;;;6.57;;
43457;SDS011;29046;54.184;18.680;2022-11-11T01:52:10;18.75;;;5.22;;
43457;SDS011;29046;54.184;18.680;2022-11-11T01:54:47;9.15;;;5.10;;
43457;SDS011;29046;54.184;18.680;2022-11-11T02:00:19;13.15;;;6.32;;
43457;SDS011;29046;54.184;18.680;2022-11-11T02:03:07;18.95;;;5.97;;
43457;SDS011;29046;54.184;18.680;2022-11-11T02:05:42;16.00;;;6.07;;
43457;SDS011;29046;54.184;18.680;2022-11-11T02:08:41;8.43;;;5.13;;
43457;SDS011;29046;54.184;18.680;2022-11-11T02:11:16;17.27;;;5.60;;
43457;SDS011;29046;54.184;18.680;2022-11-11T02:14:23;22.83;;;7.35;;
43457;SDS011;29046;54.184;18.680;2022-11-11T02:17:10;14.20;;;5.90;;
43457;SDS011;29046;54.184;18.680;2022-11-11T02:20:05;9.80;;;6.32;;
43457;SDS011;29046;54.184;18.680;2022-11-11T02:22:47;14.43;;;5.55;;
43457;SDS011;29046;54.184;18.680;2022-11-11T02:26:03;12.10;;;5.43;;
43457;SDS011;29046;54.184;18.680;2022-11-11T02:28:37;9.57;;;5.63;;
43457;SDS011;29046;54.184;18.680;2022-11-11T02:31:32;10.18;;;4.63;;
43457;SDS011;29046;54.184;18.680;2022-11-11T02:34:29;11.57;;;4.57;;
43457;SDS011;29046;54.184;18.680;2022-11-11T02:37:05;12.93;;;5.20;;
43457;SDS011;29046;54.184;18.680;2022-11-11T02:39:56;9.57;;;4.85;;
43457;SDS011;29046;54.184;18.680;2022-11-11T02:42:33;12.10;;;5.88;;
43457;SDS011;29046;54.184;18.680;2022-11-11T02:45:22;10.30;;;4.63;;
43457;SDS011;29046;54.184;18.680;2022-11-11T02:47:56;7.40;;;3.10;;
43457;SDS011;29046;54.184;18.680;2022-11-11T02:50:44;16.92;;;5.45;;
43457;SDS011;29046;54.184;18.680;2022-11-11T02:53:24;11.45;;;4.70;;
43457;SDS011;29046;54.184;18.680;2022-11-11T02:56:05;18.55;;;5.53;;
43457;SDS011;29046;54.184;18.680;2022-11-11T02:58:46;12.95;;;4.22;;
43457;SDS011;29046;54.184;18.680;2022-11-11T03:01:27;18.38;;;5.00;;
43457;SDS011;29046;54.184;18.680;2022-11-11T03:04:07;14.05;;;4.68;;
43457;SDS011;29046;54.184;18.680;2022-11-11T03:06:48;10.35;;;4.30;;
43457;SDS011;29046;54.184;18.680;2022-11-11T03:09:29;16.35;;;4.90;;
43457;SDS011;29046;54.184;18.680;2022-11-11T03:12:10;19.02;;;5.68;;
43457;SDS011;29046;54.184;18.680;2022-11-11T03:14:51;10.55;;;3.65;;
43457;SDS011;29046;54.184;18.680;2022-11-11T03:17:33;14.75;;;4.03;;
43457;SDS011;29046;54.184;18.680;2022-11-11T03:20:20;14.02;;;4.47;;
43457;SDS011;29046;54.184;18.680;2022-11-11T03:23:20;11.68;;;4.28;;
43457;SDS011;29046;54.184;18.680;2022-11-11T03:26:00;11.50;;;4.28;;
43457;SDS011;29046;54.184;18.680;2022-11-11T03:28:41;10.25;;;4.13;;
43457;SDS011;29046;54.184;18.680;2022-11-11T03:31:21;12.13;;;4.28;;
43457;SDS011;29046;54.184;18.680;2022-11-11T03:34:02;17.33;;;4.20;;
43457;SDS011;29046;54.184;18.680;2022-11-11T03:36:58;9.15;;;4.53;;
43457;SDS011;29046;54.184;18.680;2022-11-11T03:39:58;10.88;;;4.20;;
43457;SDS011;29046;54.184;18.680;2022-11-11T03:42:38;11.18;;;5.00;;
43457;SDS011;29046;54.184;18.680;2022-11-11T03:45:19;11.80;;;4.30;;
43457;SDS011;29046;54.184;18.680;2022-11-11T03:47:59;8.40;;;3.58;;
43457;SDS011;29046;54.184;18.680;2022-11-11T03:50:40;19.23;;;4.15;;
43457;SDS011;29046;54.184;18.680;2022-11-11T03:53:21;10.02;;;3.53;;
43457;SDS011;29046;54.184;18.680;2022-11-11T03:56:09;11.80;;;4.60;;
43457;SDS011;29046;54.184;18.680;2022-11-11T03:58:49;14.57;;;4.55;;
43457;SDS011;29046;54.184;18.680;2022-11-11T04:01:30;24.42;;;5.28;;
43457;SDS011;29046;54.184;18.680;2022-11-11T04:04:29;11.60;;;3.67;;
43457;SDS011;29046;54.184;18.680;2022-11-11T04:07:29;7.13;;;3.08;;
43457;SDS011;29046;54.184;18.680;2022-11-11T04:10:28;13.30;;;3.88;;
43457;SDS011;29046;54.184;18.680;2022-11-11T04:13:17;9.32;;;3.55;;
43457;SDS011;29046;54.184;18.680;2022-11-11T04:16:16;8.70;;;2.88;;
43457;SDS011;29046;54.184;18.680;2022-11-11T04:19:04;8.00;;;3.28;;
43457;SDS011;29046;54.184;18.680;2022-11-11T04:22:03;9.65;;;2.78;;
43457;SDS011;29046;54.184;18.680;2022-11-11T04:24:52;10.18;;;2.65;;
43457;SDS011;29046;54.184;18.680;2022-11-11T04:27:44;4.22;;;2.35;;
43457;SDS011;29046;54.184;18.680;2022-11-11T04:30:52;13.13;;;3.03;;
43457;SDS011;29046;54.184;18.680;2022-11-11T04:33:26;6.32;;;2.50;;
43457;SDS011;29046;54.184;18.680;2022-11-11T04:36:14;18.95;;;3.13;;
43457;SDS011;29046;54.184;18.680;2022-11-11T04:38:48;12.73;;;3.00;;
43457;SDS011;29046;54.184;18.680;2022-11-11T04:41:54;5.35;;;2.70;;
43457;SDS011;29046;54.184;18.680;2022-11-11T04:44:43;10.77;;;3.38;;
43457;SDS011;29046;54.184;18.680;2022-11-11T04:47:52;7.45;;;2.58;;
43457;SDS011;29046;54.184;18.680;2022-11-11T04:50:28;11.13;;;2.92;;
43457;SDS011;29046;54.184;18.680;2022-11-11T04:53:16;7.90;;;2.97;;
43457;SDS011;29046;54.184;18.680;2022-11-11T04:55:50;11.85;;;3.50;;
43457;SDS011;29046;54.184;18.680;2022-11-11T04:58:56;6.38;;;3.33;;
43457;SDS011;29046;54.184;18.680;2022-11-11T05:01:55;10.20;;;3.35;;
43457;SDS011;29046;54.184;18.680;2022-11-11T05:05:01;13.20;;;4.90;;
43457;SDS011;29046;54.184;18.680;2022-11-11T05:07:42;9.45;;;3.22;;
43457;SDS011;29046;54.184;18.680;2022-11-11T05:10:42;11.68;;;3.50;;
43457;SDS011;29046;54.184;18.680;2022-11-11T05:13:22;15.15;;;3.30;;
43457;SDS011;29046;54.184;18.680;2022-11-11T05:16:30;6.78;;;2.58;;
43457;SDS011;29046;54.184;18.680;2022-11-11T05:19:32;11.63;;;3.30;;
43457;SDS011;29046;54.184;18.680;2022-11-11T05:22:45;9.43;;;3.10;;
43457;SDS011;29046;54.184;18.680;2022-11-11T05:25:39;13.23;;;3.25;;
43457;SDS011;29046;54.184;18.680;2022-11-11T05:28:13;13.52;;;3.55;;
43457;SDS011;29046;54.184;18.680;2022-11-11T05:31:00;14.82;;;3.45;;
43457;SDS011;29046;54.184;18.680;2022-11-11T05:33:34;11.82;;;2.65;;
43457;SDS011;29046;54.184;18.680;2022-11-11T05:36:28;9.18;;;2.55;;
43457;SDS011;29046;54.184;18.680;2022-11-11T05:39:22;9.57;;;2.58;;
43457;SDS011;29046;54.184;18.680;2022-11-11T05:41:55;13.43;;;3.15;;
43457;SDS011;29046;54.184;18.680;2022-11-11T05:44:43;12.50;;;2.92;;
43457;SDS011;29046;54.184;18.680;2022-11-11T05:47:16;9.25;;;2.60;;
43457;SDS011;29046;54.184;18.680;2022-11-11T05:50:04;9.68;;;2.42;;
43457;SDS011;29046;54.184;18.680;2022-11-11T05:52:38;10.50;;;3.08;;
43457;SDS011;29046;54.184;18.680;2022-11-11T05:55:26;8.95;;;2.60;;
43457;SDS011;29046;54.184;18.680;2022-11-11T05:57:59;8.57;;;2.80;;
43457;SDS011;29046;54.184;18.680;2022-11-11T06:00:47;10.32;;;2.80;;
43457;SDS011;29046;54.184;18.680;2022-11-11T06:03:20;8.52;;;3.03;;
43457;SDS011;29046;54.184;18.680;2022-11-11T06:06:08;12.15;;;2.33;;
43457;SDS011;29046;54.184;18.680;2022-11-11T06:08:42;7.63;;;2.45;;
43457;SDS011;29046;54.184;18.680;2022-11-11T06:11:30;10.95;;;2.85;;
43457;SDS011;29046;54.184;18.680;2022-11-11T06:14:11;8.70;;;2.95;;
43457;SDS011;29046;54.184;18.680;2022-11-11T06:16:53;9.50;;;2.65;;
43457;SDS011;29046;54.184;18.680;2022-11-11T06:19:33;8.23;;;3.30;;
43457;SDS011;29046;54.184;18.680;2022-11-11T06:22:21;11.60;;;2.88;;
43457;SDS011;29046;54.184;18.680;2022-11-11T06:25:14;9.32;;;2.78;;
43457;SDS011;29046;54.184;18.680;2022-11-11T06:28:20;11.43;;;2.92;;
43457;SDS011;29046;54.184;18.680;2022-11-11T06:30:54;7.22;;;2.25;;
43457;SDS011;29046;54.184;18.680;2022-11-11T06:33:42;10.40;;;2.33;;
43457;SDS011;29046;54.184;18.680;2022-11-11T06:36:17;6.18;;;2.28;;
43457;SDS011;29046;54.184;18.680;2022-11-11T06:39:12;5.78;;;2.10;;
43457;SDS011;29046;54.184;18.680;2022-11-11T06:42:06;10.32;;;2.85;;
43457;SDS011;29046;54.184;18.680;2022-11-11T06:44:39;16.27;;;2.78;;
43457;SDS011;29046;54.184;18.680;2022-11-11T06:47:27;6.80;;;2.65;;
43457;SDS011;29046;54.184;18.680;2022-11-11T06:50:00;6.03;;;1.80;;
43457;SDS011;29046;54.184;18.680;2022-11-11T06:52:55;6.50;;;2.28;;
43457;SDS011;29046;54.184;18.680;2022-11-11T06:55:50;12.32;;;2.78;;
43457;SDS011;29046;54.184;18.680;2022-11-11T06:58:24;8.85;;;2.65;;
43457;SDS011;29046;54.184;18.680;2022-11-11T07:01:12;12.80;;;3.72;;
43457;SDS011;29046;54.184;18.680;2022-11-11T07:03:46;12.32;;;2.58;;
43457;SDS011;29046;54.184;18.680;2022-11-11T07:06:41;16.27;;;3.15;;
43457;SDS011;29046;54.184;18.680;2022-11-11T07:09:35;10.52;;;3.38;;
43457;SDS011;29046;54.184;18.680;2022-11-11T07:12:08;7.95;;;3.10;;
43457;SDS011;29046;54.184;18.680;2022-11-11T07:14:56;11.88;;;2.95;;
43457;SDS011;29046;54.184;18.680;2022-11-11T07:17:29;9.20;;;2.33;;
43457;SDS011;29046;54.184;18.680;2022-11-11T07:20:17;10.25;;;3.17;;
43457;SDS011;29046;54.184;18.680;2022-11-11T07:22:51;11.32;;;3.50;;
43457;SDS011;29046;54.184;18.680;2022-11-11T07:25:46;12.55;;;3.53;;
43457;SDS011;29046;54.184;18.680;2022-11-11T07:28:40;9.02;;;2.40;;
43457;SDS011;29046;54.184;18.680;2022-11-11T07:31:14;8.90;;;2.83;;
43457;SDS011;29046;54.184;18.680;2022-11-11T07:34:02;4.80;;;2.35;;
43457;SDS011;29046;54.184;18.680;2022-11-11T07:36:36;7.20;;;2.13;;
43457;SDS011;29046;54.184;18.680;2022-11-11T07:39:24;10.40;;;2.28;;
43457;SDS011;29046;54.184;18.680;2022-11-11T07:41:57;12.07;;;2.63;;
43457;SDS011;29046;54.184;18.680;2022-11-11T07:44:45;16.98;;;3.15;;
43457;SDS011;29046;54.184;18.680;2022-11-11T07:47:19;7.57;;;2.75;;
43457;SDS011;29046;54.184;18.680;2022-11-11T07:50:07;10.63;;;3.03;;
43457;SDS011;29046;54.184;18.680;2022-11-11T07:52:46;6.15;;;2.35;;
43457;SDS011;29046;54.184;18.680;2022-11-11T07:55:41;8.65;;;2.97;;
43457;SDS011;29046;54.184;18.680;2022-11-11T07:58:35;7.35;;;2.80;;
43457;SDS011;29046;54.184;18.680;2022-11-11T08:01:29;10.30;;;2.47;;
43457;SDS011;29046;54.184;18.680;2022-11-11T08:04:02;14.90;;;2.83;;
43457;SDS011;29046;54.184;18.680;2022-11-11T08:06:58;10.32;;;3.05;;
43457;SDS011;29046;54.184;18.680;2022-11-11T08:09:52;10.27;;;2.38;;
43457;SDS011;29046;54.184;18.680;2022-11-11T08:12:27;8.77;;;3.00;;
43457;SDS011;29046;54.184;18.680;2022-11-11T08:15:32;6.88;;;2.28;;
43457;SDS011;29046;54.184;18.680;2022-11-11T08:18:05;7.38;;;2.88;;
43457;SDS011;29046;54.184;18.680;2022-11-11T08:20:53;6.93;;;2.30;;
43457;SDS011;29046;54.184;18.680;2022-11-11T08:23:27;7.03;;;1.98;;
43457;SDS011;29046;54.184;18.680;2022-11-11T08:26:35;8.18;;;2.22;;
43457;SDS011;29046;54.184;18.680;2022-11-11T08:29:08;5.10;;;1.85;;
43457;SDS011;29046;54.184;18.680;2022-11-11T08:31:56;3.65;;;1.98;;
43457;SDS011;29046;54.184;18.680;2022-11-11T08:34:29;6.43;;;1.88;;
43457;SDS011;29046;54.184;18.680;2022-11-11T08:37:24;8.50;;;2.00;;
43457;SDS011;29046;54.184;18.680;2022-11-11T08:40:18;8.52;;;2.40;;
43457;SDS011;29046;54.184;18.680;2022-11-11T08:43:12;8.50;;;3.17;;
43457;SDS011;29046;54.184;18.680;2022-11-11T08:45:52;4.43;;;1.98;;
43457;SDS011;29046;54.184;18.680;2022-11-11T08:48:40;6.70;;;2.35;;
43457;SDS011;29046;54.184;18.680;2022-11-11T08:51:34;8.60;;;3.08;;
43457;SDS011;29046;54.184;18.680;2022-11-11T08:54:28;6.70;;;2.47;;
43457;SDS011;29046;54.184;18.680;2022-11-11T08:57:01;10.98;;;3.03;;
43457;SDS011;29046;54.184;18.680;2022-11-11T08:59:56;6.47;;;2.50;;
43457;SDS011;29046;54.184;18.680;2022-11-11T09:02:29;5.63;;;2.53;;
43457;SDS011;29046;54.184;18.680;2022-11-11T09:05:17;12.73;;;2.90;;
43457;SDS011;29046;54.184;18.680;2022-11-11T09:08:02;5.28;;;2.47;;
43457;SDS011;29046;54.184;18.680;2022-11-11T09:10:43;12.65;;;3.08;;
43457;SDS011;29046;54.184;18.680;2022-11-11T09:13:23;9.52;;;2.80;;
43457;SDS011;29046;54.184;18.680;2022-11-11T09:16:11;10.95;;;3.00;;
43457;SDS011;29046;54.184;18.680;2022-11-11T09:18:45;5.38;;;2.53;;
43457;SDS011;29046;54.184;18.680;2022-11-11T09:21:33;11.43;;;2.90;;
43457;SDS011;29046;54.184;18.680;2022-11-11T09:24:13;12.30;;;3.60;;
43457;SDS011;29046;54.184;18.680;2022-11-11T09:27:01;10.90;;;3.38;;
43457;SDS011;29046;54.184;18.680;2022-11-11T09:29:41;12.77;;;3.45;;
43457;SDS011;29046;54.184;18.680;2022-11-11T09:32:29;9.27;;;3.05;;
43457;SDS011;29046;54.184;18.680;2022-11-11T09:35:03;9.30;;;3.40;;
43457;SDS011;29046;54.184;18.680;2022-11-11T09:37:52;15.40;;;5.70;;
43457;SDS011;29046;54.184;18.680;2022-11-11T09:43:42;10.80;;;2.72;;
43457;SDS011;29046;54.184;18.680;2022-11-11T09:52:05;9.27;;;3.28;;
43457;SDS011;29046;54.184;18.680;2022-11-11T09:57:35;8.98;;;3.08;;
43457;SDS011;29046;54.184;18.680;2022-11-11T10:00:21;14.55;;;3.10;;
43457;SDS011;29046;54.184;18.680;2022-11-11T10:03:05;17.00;;;3.33;;
43457;SDS011;29046;54.184;18.680;2022-11-11T10:14:48;9.73;;;3.83;;
43457;SDS011;29046;54.184;18.680;2022-11-11T10:17:33;15.00;;;2.90;;
43457;SDS011;29046;54.184;18.680;2022-11-11T10:20:33;8.65;;;3.17;;
43457;SDS011;29046;54.184;18.680;2022-11-11T10:23:19;14.65;;;3.80;;
43457;SDS011;29046;54.184;18.680;2022-11-11T10:26:14;6.70;;;2.80;;
43457;SDS011;29046;54.184;18.680;2022-11-11T10:29:04;9.15;;;3.40;;
43457;SDS011;29046;54.184;18.680;2022-11-11T10:32:15;13.32;;;3.08;;
43457;SDS011;29046;54.184;18.680;2022-11-11T10:34:51;12.07;;;3.35;;
43457;SDS011;29046;54.184;18.680;2022-11-11T10:37:39;9.30;;;3.58;;
43457;SDS011;29046;54.184;18.680;2022-11-11T10:43:02;11.82;;;3.63;;
43457;SDS011;29046;54.184;18.680;2022-11-11T10:45:46;14.20;;;4.65;;
43457;SDS011;29046;54.184;18.680;2022-11-11T10:51:15;12.95;;;4.47;;
43457;SDS011;29046;54.184;18.680;2022-11-11T10:59:33;8.43;;;3.63;;
43457;SDS011;29046;54.184;18.680;2022-11-11T11:02:22;13.13;;;3.60;;
43457;SDS011;29046;54.184;18.680;2022-11-11T11:05:39;9.07;;;3.17;;
43457;SDS011;29046;54.184;18.680;2022-11-11T11:08:40;11.48;;;3.60;;
43457;SDS011;29046;54.184;18.680;2022-11-11T11:11:21;9.00;;;3.53;;
43457;SDS011;29046;54.184;18.680;2022-11-11T11:14:14;8.85;;;3.10;;
43457;SDS011;29046;54.184;18.680;2022-11-11T11:17:16;11.32;;;3.85;;
43457;SDS011;29046;54.184;18.680;2022-11-11T11:20:10;15.63;;;4.53;;
43457;SDS011;29046;54.184;18.680;2022-11-11T11:22:52;13.07;;;3.83;;
43457;SDS011;29046;54.184;18.680;2022-11-11T11:25:41;14.13;;;4.15;;
43457;SDS011;29046;54.184;18.680;2022-11-11T11:28:25;11.93;;;3.38;;
43457;SDS011;29046;54.184;18.680;2022-11-11T11:31:13;8.95;;;3.35;;
43457;SDS011;29046;54.184;18.680;2022-11-11T11:33:52;4.68;;;2.20;;
43457;SDS011;29046;54.184;18.680;2022-11-11T11:37:00;10.27;;;3.45;;
43457;SDS011;29046;54.184;18.680;2022-11-11T11:39:35;12.10;;;3.20;;
43457;SDS011;29046;54.184;18.680;2022-11-11T11:48:15;11.05;;;3.83;;
43457;SDS011;29046;54.184;18.680;2022-11-11T11:57:29;9.07;;;3.92;;
43457;SDS011;29046;54.184;18.680;2022-11-11T12:03:18;12.43;;;4.15;;
43457;SDS011;29046;54.184;18.680;2022-11-11T12:06:12;13.32;;;3.97;;
43457;SDS011;29046;54.184;18.680;2022-11-11T12:09:14;6.80;;;2.90;;
43457;SDS011;29046;54.184;18.680;2022-11-11T12:23:30;10.45;;;4.22;;
43457;SDS011;29046;54.184;18.680;2022-11-11T12:38:14;14.55;;;3.97;;
43457;SDS011;29046;54.184;18.680;2022-11-11T12:43:44;12.90;;;4.53;;
43457;SDS011;29046;54.184;18.680;2022-11-11T13:00:50;19.15;;;7.88;;
43457;SDS011;29046;54.184;18.680;2022-11-11T13:12:42;9.48;;;4.60;;
43457;SDS011;29046;54.184;18.680;2022-11-11T13:15:22;12.02;;;4.32;;
43457;SDS011;29046;54.184;18.680;2022-11-11T13:18:11;10.32;;;4.82;;
43457;SDS011;29046;54.184;18.680;2022-11-11T13:20:50;13.32;;;4.45;;
43457;SDS011;29046;54.184;18.680;2022-11-11T13:23:32;9.60;;;3.95;;
43457;SDS011;29046;54.184;18.680;2022-11-11T13:26:22;11.27;;;4.25;;
43457;SDS011;29046;54.184;18.680;2022-11-11T13:29:02;11.68;;;3.40;;
43457;SDS011;29046;54.184;18.680;2022-11-11T13:31:52;12.77;;;6.00;;
43457;SDS011;29046;54.184;18.680;2022-11-11T13:34:26;15.50;;;6.30;;
43457;SDS011;29046;54.184;18.680;2022-11-11T13:37:19;17.02;;;8.63;;
43457;SDS011;29046;54.184;18.680;2022-11-11T13:40:05;24.60;;;8.95;;
43457;SDS011;29046;54.184;18.680;2022-11-11T13:42:53;15.13;;;7.55;;
43457;SDS011;29046;54.184;18.680;2022-11-11T13:45:35;21.58;;;7.35;;
43457;SDS011;29046;54.184;18.680;2022-11-11T13:48:23;14.00;;;5.65;;
43457;SDS011;29046;54.184;18.680;2022-11-11T13:51:12;17.15;;;6.05;;
43457;SDS011;29046;54.184;18.680;2022-11-11T13:53:58;11.15;;;4.28;;
43457;SDS011;29046;54.184;18.680;2022-11-11T13:56:42;13.88;;;4.82;;
43457;SDS011;29046;54.184;18.680;2022-11-11T13:59:27;19.70;;;7.15;;
43457;SDS011;29046;54.184;18.680;2022-11-11T14:02:12;48.63;;;16.15;;
43457;SDS011;29046;54.184;18.680;2022-11-11T14:15:50;9.43;;;4.35;;
43457;SDS011;29046;54.184;18.680;2022-11-11T14:18:39;15.20;;;5.22;;
43457;SDS011;29046;54.184;18.680;2022-11-11T14:21:55;12.07;;;5.20;;
43457;SDS011;29046;54.184;18.680;2022-11-11T14:27:24;11.55;;;4.78;;
43457;SDS011;29046;54.184;18.680;2022-11-11T14:30:09;11.77;;;3.50;;
43457;SDS011;29046;54.184;18.680;2022-11-11T14:36:03;21.15;;;4.80;;
43457;SDS011;29046;54.184;18.680;2022-11-11T14:51:46;17.75;;;11.15;;
43457;SDS011;29046;54.184;18.680;2022-11-11T14:54:27;13.00;;;5.93;;
43457;SDS011;29046;54.184;18.680;2022-11-11T14:57:25;7.45;;;4.20;;
43457;SDS011;29046;54.184;18.680;2022-11-11T15:00:10;8.13;;;5.38;;
43457;SDS011;29046;54.184;18.680;2022-11-11T15:03:23;12.75;;;5.03;;
43457;SDS011;29046;54.184;18.680;2022-11-11T15:06:05;11.63;;;5.40;;
43457;SDS011;29046;54.184;18.680;2022-11-11T15:25:58;10.00;;;5.03;;
43457;SDS011;29046;54.184;18.680;2022-11-11T15:29:04;25.90;;;8.82;;
43457;SDS011;29046;54.184;18.680;2022-11-11T15:32:15;14.32;;;6.25;;
43457;SDS011;29046;54.184;18.680;2022-11-11T15:38:04;11.80;;;4.67;;
43457;SDS011;29046;54.184;18.680;2022-11-11T15:40:43;21.05;;;5.80;;
43457;SDS011;29046;54.184;18.680;2022-11-11T15:43:32;13.80;;;4.80;;
43457;SDS011;29046;54.184;18.680;2022-11-11T15:46:12;14.20;;;5.13;;
43457;SDS011;29046;54.184;18.680;2022-11-11T15:49:12;14.60;;;6.18;;
43457;SDS011;29046;54.184;18.680;2022-11-11T15:51:46;12.48;;;5.00;;
43457;SDS011;29046;54.184;18.680;2022-11-11T15:54:42;13.90;;;4.95;;
43457;SDS011;29046;54.184;18.680;2022-11-11T16:00:40;14.48;;;4.35;;
43457;SDS011;29046;54.184;18.680;2022-11-11T16:03:19;7.50;;;4.32;;
43457;SDS011;29046;54.184;18.680;2022-11-11T16:06:10;19.27;;;5.30;;
43457;SDS011;29046;54.184;18.680;2022-11-11T16:08:47;13.60;;;5.05;;
43457;SDS011;29046;54.184;18.680;2022-11-11T16:11:45;12.05;;;5.25;;
43457;SDS011;29046;54.184;18.680;2022-11-11T16:14:33;14.73;;;6.28;;
43457;SDS011;29046;54.184;18.680;2022-11-11T16:17:32;16.05;;;6.65;;
43457;SDS011;29046;54.184;18.680;2022-11-11T16:20:12;15.77;;;6.25;;
43457;SDS011;29046;54.184;18.680;2022-11-11T16:23:07;10.70;;;6.00;;
43457;SDS011;29046;54.184;18.680;2022-11-11T16:26:02;15.60;;;5.85;;
43457;SDS011;29046;54.184;18.680;2022-11-11T16:28:45;13.93;;;5.53;;
43457;SDS011;29046;54.184;18.680;2022-11-11T16:31:42;13.35;;;5.60;;
43457;SDS011;29046;54.184;18.680;2022-11-11T16:34:39;16.30;;;7.18;;
43457;SDS011;29046;54.184;18.680;2022-11-11T16:37:16;16.00;;;5.72;;
43457;SDS011;29046;54.184;18.680;2022-11-11T16:49:35;17.05;;;6.82;;
43457;SDS011;29046;54.184;18.680;2022-11-11T16:52:17;24.45;;;10.20;;
43457;SDS011;29046;54.184;18.680;2022-11-11T16:55:05;18.92;;;9.18;;
43457;SDS011;29046;54.184;18.680;2022-11-11T16:57:40;16.60;;;7.53;;
43457;SDS011;29046;54.184;18.680;2022-11-11T17:00:28;33.42;;;14.38;;
43457;SDS011;29046;54.184;18.680;2022-11-11T17:03:15;27.20;;;13.00;;
43457;SDS011;29046;54.184;18.680;2022-11-11T17:06:12;19.27;;;7.17;;
43457;SDS011;29046;54.184;18.680;2022-11-11T17:09:25;16.67;;;7.20;;
43457;SDS011;29046;54.184;18.680;2022-11-11T17:11:59;21.40;;;7.90;;
43457;SDS011;29046;54.184;18.680;2022-11-11T17:14:47;17.13;;;7.97;;
43457;SDS011;29046;54.184;18.680;2022-11-11T17:17:20;18.95;;;10.00;;
43457;SDS011;29046;54.184;18.680;2022-11-11T17:20:09;15.00;;;6.93;;
43457;SDS011;29046;54.184;18.680;2022-11-11T17:22:52;44.25;;;22.10;;
43457;SDS011;29046;54.184;18.680;2022-11-11T17:25:45;81.65;;;42.47;;
43457;SDS011;29046;54.184;18.680;2022-11-11T17:28:19;36.40;;;18.20;;
43457;SDS011;29046;54.184;18.680;2022-11-11T17:31:07;23.20;;;8.27;;
43457;SDS011;29046;54.184;18.680;2022-11-11T17:33:42;22.00;;;8.20;;
43457;SDS011;29046;54.184;18.680;2022-11-11T17:36:37;59.53;;;17.38;;
43457;SDS011;29046;54.184;18.680;2022-11-11T17:39:17;20.65;;;9.27;;
43457;SDS011;29046;54.184;18.680;2022-11-11T17:41:58;13.20;;;5.93;;
43457;SDS011;29046;54.184;18.680;2022-11-11T17:44:39;8.35;;;5.10;;
43457;SDS011;29046;54.184;18.680;2022-11-11T17:47:27;15.50;;;6.50;;
43457;SDS011;29046;54.184;18.680;2022-11-11T17:50:15;13.70;;;5.13;;
43457;SDS011;29046;54.184;18.680;2022-11-11T17:52:56;11.32;;;5.85;;
43457;SDS011;29046;54.184;18.680;2022-11-11T17:55:37;10.90;;;5.38;;
43457;SDS011;29046;54.184;18.680;2022-11-11T17:58:25;12.38;;;5.45;;
43457;SDS011;29046;54.184;18.680;2022-11-11T18:01:06;17.17;;;7.15;;
43457;SDS011;29046;54.184;18.680;2022-11-11T18:03:54;11.00;;;5.15;;
43457;SDS011;29046;54.184;18.680;2022-11-11T18:06:36;11.57;;;6.30;;
43457;SDS011;29046;54.184;18.680;2022-11-11T18:09:17;13.50;;;5.63;;
43457;SDS011;29046;54.184;18.680;2022-11-11T18:11:59;12.45;;;5.20;;
43457;SDS011;29046;54.184;18.680;2022-11-11T18:14:39;13.60;;;6.43;;
43457;SDS011;29046;54.184;18.680;2022-11-11T18:17:19;8.60;;;4.20;;
43457;SDS011;29046;54.184;18.680;2022-11-11T18:20:07;19.92;;;6.85;;
43457;SDS011;29046;54.184;18.680;2022-11-11T18:22:41;17.48;;;7.40;;
43457;SDS011;29046;54.184;18.680;2022-11-11T18:25:36;8.45;;;4.20;;
43457;SDS011;29046;54.184;18.680;2022-11-11T18:28:31;11.70;;;4.97;;
43457;SDS011;29046;54.184;18.680;2022-11-11T18:31:06;11.98;;;5.18;;
43457;SDS011;29046;54.184;18.680;2022-11-11T18:33:55;10.40;;;3.20;;
43457;SDS011;29046;54.184;18.680;2022-11-11T18:36:29;8.25;;;4.13;;
43457;SDS011;29046;54.184;18.680;2022-11-11T18:39:17;7.18;;;3.85;;
43457;SDS011;29046;54.184;18.680;2022-11-11T18:41:51;9.23;;;3.45;;
43457;SDS011;29046;54.184;18.680;2022-11-11T18:44:39;9.15;;;3.70;;
43457;SDS011;29046;54.184;18.680;2022-11-11T18:47:12;9.93;;;5.10;;
43457;SDS011;29046;54.184;18.680;2022-11-11T18:50:00;9.00;;;4.45;;
43457;SDS011;29046;54.184;18.680;2022-11-11T18:52:34;7.65;;;3.70;;
43457;SDS011;29046;54.184;18.680;2022-11-11T18:55:22;4.97;;;2.88;;
43457;SDS011;29046;54.184;18.680;2022-11-11T18:57:55;6.63;;;4.25;;
43457;SDS011;29046;54.184;18.680;2022-11-11T19:00:43;8.02;;;4.80;;